sensor_id;sensor_type;location;lat;lon;timestamp;P1;durP1;ratioP1;P2;durP2;ratioP2
151;SDS011;68;48.792;9.164;2023-10-19T00:02:07;59.08;;;29.27;;
151;SDS011;68;48.792;9.164;2023-10-19T00:04:34;54.15;;;29.95;;
151;SDS011;68;48.792;9.164;2023-10-19T00:07:03;57.55;;;29.45;;
151;SDS011;68;48.792;9.164;2023-10-19T00:09:32;54.92;;;30.10;;
151;SDS011;68;48.792;9.164;2023-10-19T00:12:03;59.58;;;30.23;;
151;SDS011;68;48.792;9.164;2023-10-19T00:14:31;54.60;;;29.65;;
151;SDS011;68;48.792;9.164;2023-10-19T00:16:57;58.97;;;31.50;;
151;SDS011;68;48.792;9.164;2023-10-19T00:19:30;60.60;;;31.35;;
151;SDS011;68;48.792;9.164;2023-10-19T00:22:05;55.17;;;30.88;;
151;SDS011;68;48.792;9.164;2023-10-19T00:24:34;56.20;;;31.20;;
151;SDS011;68;48.792;9.164;2023-10-19T00:27:01;54.55;;;29.05;;
151;SDS011;68;48.792;9.164;2023-10-19T00:29:36;60.25;;;32.42;;
151;SDS011;68;48.792;9.164;2023-10-19T00:32:13;64.20;;;32.17;;
151;SDS011;68;48.792;9.164;2023-10-19T00:34:40;56.38;;;31.15;;
151;SDS011;68;48.792;9.164;2023-10-19T00:37:13;56.20;;;30.35;;
151;SDS011;68;48.792;9.164;2023-10-19T00:39:44;52.17;;;28.42;;
151;SDS011;68;48.792;9.164;2023-10-19T00:42:18;55.42;;;28.05;;
151;SDS011;68;48.792;9.164;2023-10-19T00:44:49;45.80;;;23.05;;
151;SDS011;68;48.792;9.164;2023-10-19T00:47:16;44.47;;;22.75;;
151;SDS011;68;48.792;9.164;2023-10-19T00:49:44;40.83;;;19.67;;
151;SDS011;68;48.792;9.164;2023-10-19T00:52:12;41.22;;;20.52;;
151;SDS011;68;48.792;9.164;2023-10-19T00:54:44;40.15;;;21.20;;
151;SDS011;68;48.792;9.164;2023-10-19T00:57:20;38.63;;;19.88;;
151;SDS011;68;48.792;9.164;2023-10-19T00:59:57;40.88;;;20.00;;
151;SDS011;68;48.792;9.164;2023-10-19T01:02:36;38.63;;;18.17;;
151;SDS011;68;48.792;9.164;2023-10-19T01:05:09;40.47;;;18.95;;
151;SDS011;68;48.792;9.164;2023-10-19T01:07:39;37.10;;;18.33;;
151;SDS011;68;48.792;9.164;2023-10-19T01:10:07;37.50;;;19.10;;
151;SDS011;68;48.792;9.164;2023-10-19T01:12:36;37.60;;;18.30;;
151;SDS011;68;48.792;9.164;2023-10-19T01:15:06;40.70;;;19.55;;
151;SDS011;68;48.792;9.164;2023-10-19T01:17:33;40.47;;;20.10;;
151;SDS011;68;48.792;9.164;2023-10-19T01:20:04;38.72;;;20.35;;
151;SDS011;68;48.792;9.164;2023-10-19T01:22:46;38.92;;;18.35;;
151;SDS011;68;48.792;9.164;2023-10-19T01:25:21;38.00;;;18.83;;
151;SDS011;68;48.792;9.164;2023-10-19T01:27:59;37.33;;;17.95;;
151;SDS011;68;48.792;9.164;2023-10-19T01:30:32;40.63;;;18.83;;
151;SDS011;68;48.792;9.164;2023-10-19T01:32:59;39.97;;;19.55;;
151;SDS011;68;48.792;9.164;2023-10-19T01:35:27;37.63;;;17.23;;
151;SDS011;68;48.792;9.164;2023-10-19T01:38:16;36.03;;;17.95;;
151;SDS011;68;48.792;9.164;2023-10-19T01:40:42;35.25;;;16.25;;
151;SDS011;68;48.792;9.164;2023-10-19T01:43:13;38.53;;;17.00;;
151;SDS011;68;48.792;9.164;2023-10-19T01:45:46;39.08;;;18.52;;
151;SDS011;68;48.792;9.164;2023-10-19T01:48:13;36.35;;;18.67;;
151;SDS011;68;48.792;9.164;2023-10-19T01:50:40;41.03;;;17.25;;
151;SDS011;68;48.792;9.164;2023-10-19T01:53:07;39.25;;;18.73;;
151;SDS011;68;48.792;9.164;2023-10-19T01:55:41;39.42;;;18.15;;
151;SDS011;68;48.792;9.164;2023-10-19T01:58:08;37.17;;;16.77;;
151;SDS011;68;48.792;9.164;2023-10-19T02:00:35;41.70;;;18.83;;
151;SDS011;68;48.792;9.164;2023-10-19T02:03:06;37.58;;;17.70;;
151;SDS011;68;48.792;9.164;2023-10-19T02:05:32;44.75;;;18.30;;
151;SDS011;68;48.792;9.164;2023-10-19T02:08:04;40.30;;;18.15;;
151;SDS011;68;48.792;9.164;2023-10-19T02:10:32;41.05;;;18.55;;
151;SDS011;68;48.792;9.164;2023-10-19T02:13:00;43.22;;;17.25;;
151;SDS011;68;48.792;9.164;2023-10-19T02:15:31;38.35;;;17.10;;
151;SDS011;68;48.792;9.164;2023-10-19T02:17:59;38.30;;;17.73;;
151;SDS011;68;48.792;9.164;2023-10-19T02:20:27;37.90;;;17.48;;
151;SDS011;68;48.792;9.164;2023-10-19T02:22:53;38.88;;;18.35;;
151;SDS011;68;48.792;9.164;2023-10-19T02:25:22;35.40;;;16.15;;
151;SDS011;68;48.792;9.164;2023-10-19T02:27:50;38.28;;;16.83;;
151;SDS011;68;48.792;9.164;2023-10-19T02:30:18;38.47;;;16.50;;
151;SDS011;68;48.792;9.164;2023-10-19T02:32:44;34.22;;;16.40;;
151;SDS011;68;48.792;9.164;2023-10-19T02:35:12;36.50;;;16.23;;
151;SDS011;68;48.792;9.164;2023-10-19T02:37:39;39.10;;;16.10;;
151;SDS011;68;48.792;9.164;2023-10-19T02:40:06;42.47;;;16.88;;
151;SDS011;68;48.792;9.164;2023-10-19T02:42:37;34.42;;;16.70;;
151;SDS011;68;48.792;9.164;2023-10-19T02:45:05;40.10;;;16.65;;
151;SDS011;68;48.792;9.164;2023-10-19T02:47:34;36.20;;;16.27;;
151;SDS011;68;48.792;9.164;2023-10-19T02:50:01;40.42;;;16.65;;
151;SDS011;68;48.792;9.164;2023-10-19T02:52:35;37.90;;;16.50;;
151;SDS011;68;48.792;9.164;2023-10-19T02:55:02;35.38;;;13.23;;
151;SDS011;68;48.792;9.164;2023-10-19T02:57:30;39.83;;;17.05;;
151;SDS011;68;48.792;9.164;2023-10-19T02:59:56;37.05;;;16.27;;
151;SDS011;68;48.792;9.164;2023-10-19T03:02:24;38.60;;;16.73;;
151;SDS011;68;48.792;9.164;2023-10-19T03:04:52;37.75;;;16.35;;
151;SDS011;68;48.792;9.164;2023-10-19T03:07:20;43.72;;;18.02;;
151;SDS011;68;48.792;9.164;2023-10-19T03:09:45;39.07;;;17.60;;
151;SDS011;68;48.792;9.164;2023-10-19T03:12:14;39.67;;;17.90;;
151;SDS011;68;48.792;9.164;2023-10-19T03:14:42;42.47;;;18.00;;
151;SDS011;68;48.792;9.164;2023-10-19T03:17:08;37.22;;;17.20;;
151;SDS011;68;48.792;9.164;2023-10-19T03:19:35;38.75;;;16.83;;
151;SDS011;68;48.792;9.164;2023-10-19T03:22:04;35.67;;;16.75;;
151;SDS011;68;48.792;9.164;2023-10-19T03:24:31;38.35;;;17.58;;
151;SDS011;68;48.792;9.164;2023-10-19T03:27:01;38.78;;;17.60;;
151;SDS011;68;48.792;9.164;2023-10-19T03:29:33;37.08;;;18.38;;
151;SDS011;68;48.792;9.164;2023-10-19T03:32:03;43.40;;;18.02;;
151;SDS011;68;48.792;9.164;2023-10-19T03:34:31;38.03;;;17.10;;
151;SDS011;68;48.792;9.164;2023-10-19T03:36:58;42.20;;;18.98;;
151;SDS011;68;48.792;9.164;2023-10-19T03:39:31;38.20;;;19.35;;
151;SDS011;68;48.792;9.164;2023-10-19T03:42:00;42.63;;;18.58;;
151;SDS011;68;48.792;9.164;2023-10-19T03:44:31;36.55;;;18.02;;
151;SDS011;68;48.792;9.164;2023-10-19T03:47:09;40.85;;;20.25;;
151;SDS011;68;48.792;9.164;2023-10-19T03:49:39;42.55;;;20.70;;
151;SDS011;68;48.792;9.164;2023-10-19T03:52:07;42.42;;;19.50;;
151;SDS011;68;48.792;9.164;2023-10-19T03:54:55;46.22;;;20.38;;
151;SDS011;68;48.792;9.164;2023-10-19T03:57:22;42.72;;;20.35;;
151;SDS011;68;48.792;9.164;2023-10-19T03:59:54;46.63;;;22.13;;
151;SDS011;68;48.792;9.164;2023-10-19T04:02:22;46.17;;;21.52;;
151;SDS011;68;48.792;9.164;2023-10-19T04:04:49;42.50;;;21.13;;
151;SDS011;68;48.792;9.164;2023-10-19T04:07:17;46.58;;;20.88;;
151;SDS011;68;48.792;9.164;2023-10-19T04:09:47;40.47;;;20.77;;
151;SDS011;68;48.792;9.164;2023-10-19T04:12:36;37.83;;;18.52;;
151;SDS011;68;48.792;9.164;2023-10-19T04:15:07;38.55;;;18.38;;
151;SDS011;68;48.792;9.164;2023-10-19T04:17:37;35.92;;;16.65;;
151;SDS011;68;48.792;9.164;2023-10-19T04:20:05;41.65;;;17.98;;
151;SDS011;68;48.792;9.164;2023-10-19T04:22:51;34.40;;;16.55;;
151;SDS011;68;48.792;9.164;2023-10-19T04:25:18;34.40;;;16.10;;
151;SDS011;68;48.792;9.164;2023-10-19T04:27:47;33.75;;;16.63;;
151;SDS011;68;48.792;9.164;2023-10-19T04:30:15;39.17;;;16.52;;
151;SDS011;68;48.792;9.164;2023-10-19T04:32:42;33.45;;;15.70;;
151;SDS011;68;48.792;9.164;2023-10-19T04:35:10;33.03;;;15.23;;
151;SDS011;68;48.792;9.164;2023-10-19T04:37:38;38.13;;;16.10;;
151;SDS011;68;48.792;9.164;2023-10-19T04:40:07;38.55;;;15.48;;
151;SDS011;68;48.792;9.164;2023-10-19T04:42:35;35.13;;;15.57;;
151;SDS011;68;48.792;9.164;2023-10-19T04:45:04;35.28;;;16.75;;
151;SDS011;68;48.792;9.164;2023-10-19T04:47:32;35.10;;;15.70;;
151;SDS011;68;48.792;9.164;2023-10-19T04:50:00;36.97;;;15.80;;
151;SDS011;68;48.792;9.164;2023-10-19T04:52:27;35.17;;;16.33;;
151;SDS011;68;48.792;9.164;2023-10-19T04:54:54;34.58;;;16.30;;
151;SDS011;68;48.792;9.164;2023-10-19T04:57:21;36.47;;;14.98;;
151;SDS011;68;48.792;9.164;2023-10-19T04:59:48;37.40;;;17.13;;
151;SDS011;68;48.792;9.164;2023-10-19T05:02:16;38.95;;;16.60;;
151;SDS011;68;48.792;9.164;2023-10-19T05:04:44;38.38;;;16.45;;
151;SDS011;68;48.792;9.164;2023-10-19T05:07:11;35.75;;;17.00;;
151;SDS011;68;48.792;9.164;2023-10-19T05:09:41;36.13;;;16.45;;
151;SDS011;68;48.792;9.164;2023-10-19T05:12:08;41.00;;;18.65;;
151;SDS011;68;48.792;9.164;2023-10-19T05:14:36;37.95;;;15.85;;
151;SDS011;68;48.792;9.164;2023-10-19T05:17:03;38.42;;;18.80;;
151;SDS011;68;48.792;9.164;2023-10-19T05:19:32;38.83;;;18.63;;
151;SDS011;68;48.792;9.164;2023-10-19T05:21:59;34.03;;;17.27;;
151;SDS011;68;48.792;9.164;2023-10-19T05:24:26;38.25;;;16.63;;
151;SDS011;68;48.792;9.164;2023-10-19T05:26:53;35.58;;;16.35;;
151;SDS011;68;48.792;9.164;2023-10-19T05:29:20;35.22;;;15.60;;
151;SDS011;68;48.792;9.164;2023-10-19T05:31:49;35.85;;;16.58;;
151;SDS011;68;48.792;9.164;2023-10-19T05:34:18;38.25;;;16.13;;
151;SDS011;68;48.792;9.164;2023-10-19T05:36:47;33.67;;;15.30;;
151;SDS011;68;48.792;9.164;2023-10-19T05:39:14;35.63;;;16.42;;
151;SDS011;68;48.792;9.164;2023-10-19T05:41:41;34.33;;;13.02;;
151;SDS011;68;48.792;9.164;2023-10-19T05:44:08;40.13;;;15.77;;
151;SDS011;68;48.792;9.164;2023-10-19T05:46:35;39.75;;;17.20;;
151;SDS011;68;48.792;9.164;2023-10-19T05:49:03;35.58;;;13.10;;
151;SDS011;68;48.792;9.164;2023-10-19T05:51:31;33.90;;;15.38;;
151;SDS011;68;48.792;9.164;2023-10-19T05:53:59;35.17;;;16.55;;
151;SDS011;68;48.792;9.164;2023-10-19T05:56:28;36.15;;;17.33;;
151;SDS011;68;48.792;9.164;2023-10-19T05:58:55;33.67;;;15.68;;
151;SDS011;68;48.792;9.164;2023-10-19T06:01:22;33.40;;;14.93;;
151;SDS011;68;48.792;9.164;2023-10-19T06:03:49;36.97;;;16.10;;
151;SDS011;68;48.792;9.164;2023-10-19T06:06:16;33.55;;;15.55;;
151;SDS011;68;48.792;9.164;2023-10-19T06:08:44;34.85;;;16.23;;
151;SDS011;68;48.792;9.164;2023-10-19T06:11:12;37.63;;;19.13;;
151;SDS011;68;48.792;9.164;2023-10-19T06:13:39;37.85;;;16.77;;
151;SDS011;68;48.792;9.164;2023-10-19T06:16:06;39.22;;;18.05;;
151;SDS011;68;48.792;9.164;2023-10-19T06:18:33;38.40;;;18.38;;
151;SDS011;68;48.792;9.164;2023-10-19T06:20:59;42.78;;;20.00;;
151;SDS011;68;48.792;9.164;2023-10-19T06:23:26;38.72;;;17.85;;
151;SDS011;68;48.792;9.164;2023-10-19T06:25:53;38.40;;;18.38;;
151;SDS011;68;48.792;9.164;2023-10-19T06:28:21;39.05;;;17.25;;
151;SDS011;68;48.792;9.164;2023-10-19T06:30:48;36.95;;;17.35;;
151;SDS011;68;48.792;9.164;2023-10-19T06:33:15;40.85;;;17.58;;
151;SDS011;68;48.792;9.164;2023-10-19T06:35:42;39.60;;;16.38;;
151;SDS011;68;48.792;9.164;2023-10-19T06:38:09;37.55;;;16.02;;
151;SDS011;68;48.792;9.164;2023-10-19T06:40:36;35.55;;;16.23;;
151;SDS011;68;48.792;9.164;2023-10-19T06:43:03;43.22;;;17.23;;
151;SDS011;68;48.792;9.164;2023-10-19T06:45:31;39.13;;;18.10;;
151;SDS011;68;48.792;9.164;2023-10-19T06:47:58;36.97;;;17.20;;
151;SDS011;68;48.792;9.164;2023-10-19T06:50:26;42.45;;;18.70;;
151;SDS011;68;48.792;9.164;2023-10-19T06:52:53;38.08;;;18.63;;
151;SDS011;68;48.792;9.164;2023-10-19T06:55:20;38.90;;;19.33;;
151;SDS011;68;48.792;9.164;2023-10-19T06:57:48;41.17;;;19.65;;
151;SDS011;68;48.792;9.164;2023-10-19T07:00:17;39.17;;;19.85;;
151;SDS011;68;48.792;9.164;2023-10-19T07:02:46;40.20;;;20.67;;
151;SDS011;68;48.792;9.164;2023-10-19T07:05:14;41.35;;;20.48;;
151;SDS011;68;48.792;9.164;2023-10-19T07:07:46;48.30;;;23.50;;
151;SDS011;68;48.792;9.164;2023-10-19T07:10:13;43.05;;;21.10;;
151;SDS011;68;48.792;9.164;2023-10-19T07:12:43;50.38;;;23.13;;
151;SDS011;68;48.792;9.164;2023-10-19T07:15:12;52.05;;;23.95;;
151;SDS011;68;48.792;9.164;2023-10-19T07:17:40;51.20;;;23.75;;
151;SDS011;68;48.792;9.164;2023-10-19T07:20:08;44.35;;;22.40;;
151;SDS011;68;48.792;9.164;2023-10-19T07:22:47;49.50;;;23.20;;
151;SDS011;68;48.792;9.164;2023-10-19T07:25:14;51.92;;;23.85;;
151;SDS011;68;48.792;9.164;2023-10-19T07:27:40;46.92;;;23.52;;
151;SDS011;68;48.792;9.164;2023-10-19T07:30:08;49.13;;;24.08;;
151;SDS011;68;48.792;9.164;2023-10-19T07:32:35;50.60;;;24.50;;
151;SDS011;68;48.792;9.164;2023-10-19T07:35:03;51.83;;;24.27;;
151;SDS011;68;48.792;9.164;2023-10-19T07:37:32;56.88;;;26.10;;
151;SDS011;68;48.792;9.164;2023-10-19T07:40:00;46.55;;;23.38;;
151;SDS011;68;48.792;9.164;2023-10-19T07:42:30;50.33;;;23.77;;
151;SDS011;68;48.792;9.164;2023-10-19T07:45:00;53.55;;;25.20;;
151;SDS011;68;48.792;9.164;2023-10-19T07:47:27;49.60;;;25.48;;
151;SDS011;68;48.792;9.164;2023-10-19T07:49:53;55.25;;;25.40;;
151;SDS011;68;48.792;9.164;2023-10-19T07:52:21;53.17;;;25.75;;
151;SDS011;68;48.792;9.164;2023-10-19T07:54:50;47.75;;;25.08;;
151;SDS011;68;48.792;9.164;2023-10-19T07:57:18;50.65;;;26.15;;
151;SDS011;68;48.792;9.164;2023-10-19T07:59:45;57.25;;;29.05;;
151;SDS011;68;48.792;9.164;2023-10-19T08:02:13;54.70;;;26.13;;
151;SDS011;68;48.792;9.164;2023-10-19T08:04:38;55.83;;;27.30;;
151;SDS011;68;48.792;9.164;2023-10-19T08:07:05;50.10;;;25.20;;
151;SDS011;68;48.792;9.164;2023-10-19T08:09:32;67.05;;;40.15;;
151;SDS011;68;48.792;9.164;2023-10-19T08:12:01;67.95;;;40.90;;
151;SDS011;68;48.792;9.164;2023-10-19T08:14:30;70.75;;;35.08;;
151;SDS011;68;48.792;9.164;2023-10-19T08:16:57;73.05;;;41.00;;
151;SDS011;68;48.792;9.164;2023-10-19T08:19:24;70.65;;;39.92;;
151;SDS011;68;48.792;9.164;2023-10-19T08:21:52;64.68;;;31.88;;
151;SDS011;68;48.792;9.164;2023-10-19T08:24:19;68.13;;;36.00;;
151;SDS011;68;48.792;9.164;2023-10-19T08:26:46;71.00;;;36.47;;
151;SDS011;68;48.792;9.164;2023-10-19T08:29:14;80.50;;;45.33;;
151;SDS011;68;48.792;9.164;2023-10-19T08:31:42;71.63;;;37.63;;
151;SDS011;68;48.792;9.164;2023-10-19T08:34:10;66.30;;;35.85;;
151;SDS011;68;48.792;9.164;2023-10-19T08:36:37;73.97;;;33.88;;
151;SDS011;68;48.792;9.164;2023-10-19T08:39:04;70.50;;;38.05;;
151;SDS011;68;48.792;9.164;2023-10-19T08:41:32;68.32;;;35.10;;
151;SDS011;68;48.792;9.164;2023-10-19T08:43:59;69.28;;;32.85;;
151;SDS011;68;48.792;9.164;2023-10-19T08:46:28;60.05;;;31.65;;
151;SDS011;68;48.792;9.164;2023-10-19T08:48:55;64.32;;;31.80;;
151;SDS011;68;48.792;9.164;2023-10-19T08:51:24;65.82;;;30.27;;
151;SDS011;68;48.792;9.164;2023-10-19T08:53:52;59.40;;;28.88;;
151;SDS011;68;48.792;9.164;2023-10-19T08:56:19;51.60;;;28.08;;
151;SDS011;68;48.792;9.164;2023-10-19T08:58:48;72.03;;;27.90;;
151;SDS011;68;48.792;9.164;2023-10-19T09:01:17;57.28;;;28.45;;
151;SDS011;68;48.792;9.164;2023-10-19T09:03:46;58.25;;;28.50;;
151;SDS011;68;48.792;9.164;2023-10-19T09:06:13;59.95;;;28.35;;
151;SDS011;68;48.792;9.164;2023-10-19T09:08:40;57.45;;;26.85;;
151;SDS011;68;48.792;9.164;2023-10-19T09:11:10;57.90;;;27.95;;
151;SDS011;68;48.792;9.164;2023-10-19T09:13:44;57.22;;;27.83;;
151;SDS011;68;48.792;9.164;2023-10-19T09:16:13;57.50;;;28.13;;
151;SDS011;68;48.792;9.164;2023-10-19T09:18:41;62.05;;;31.58;;
151;SDS011;68;48.792;9.164;2023-10-19T09:21:09;58.42;;;28.52;;
151;SDS011;68;48.792;9.164;2023-10-19T09:23:37;58.47;;;28.15;;
151;SDS011;68;48.792;9.164;2023-10-19T09:26:05;50.58;;;25.77;;
151;SDS011;68;48.792;9.164;2023-10-19T09:28:34;51.17;;;26.95;;
151;SDS011;68;48.792;9.164;2023-10-19T09:31:03;60.58;;;25.00;;
151;SDS011;68;48.792;9.164;2023-10-19T09:33:31;44.25;;;21.85;;
151;SDS011;68;48.792;9.164;2023-10-19T09:36:00;42.55;;;19.75;;
151;SDS011;68;48.792;9.164;2023-10-19T09:38:30;42.45;;;18.60;;
151;SDS011;68;48.792;9.164;2023-10-19T09:40:58;37.25;;;16.35;;
151;SDS011;68;48.792;9.164;2023-10-19T09:43:30;35.85;;;14.73;;
151;SDS011;68;48.792;9.164;2023-10-19T09:46:08;36.10;;;14.88;;
151;SDS011;68;48.792;9.164;2023-10-19T09:48:38;38.63;;;13.23;;
151;SDS011;68;48.792;9.164;2023-10-19T09:51:07;30.00;;;12.55;;
151;SDS011;68;48.792;9.164;2023-10-19T09:53:36;34.28;;;13.25;;
151;SDS011;68;48.792;9.164;2023-10-19T09:56:06;31.90;;;11.17;;
151;SDS011;68;48.792;9.164;2023-10-19T09:58:38;32.75;;;12.02;;
151;SDS011;68;48.792;9.164;2023-10-19T10:01:10;32.33;;;11.93;;
151;SDS011;68;48.792;9.164;2023-10-19T10:03:44;34.70;;;12.60;;
151;SDS011;68;48.792;9.164;2023-10-19T10:06:12;36.30;;;13.83;;
151;SDS011;68;48.792;9.164;2023-10-19T10:08:42;30.52;;;12.60;;
151;SDS011;68;48.792;9.164;2023-10-19T10:11:17;33.42;;;12.77;;
151;SDS011;68;48.792;9.164;2023-10-19T10:13:49;31.00;;;11.83;;
151;SDS011;68;48.792;9.164;2023-10-19T10:16:21;32.20;;;13.00;;
151;SDS011;68;48.792;9.164;2023-10-19T10:18:50;34.90;;;11.57;;
151;SDS011;68;48.792;9.164;2023-10-19T10:21:20;30.63;;;10.98;;
151;SDS011;68;48.792;9.164;2023-10-19T10:23:51;36.20;;;10.87;;
151;SDS011;68;48.792;9.164;2023-10-19T10:26:19;34.23;;;12.73;;
151;SDS011;68;48.792;9.164;2023-10-19T10:29:07;37.10;;;12.73;;
151;SDS011;68;48.792;9.164;2023-10-19T10:31:40;35.23;;;13.30;;
151;SDS011;68;48.792;9.164;2023-10-19T10:34:08;31.20;;;11.65;;
151;SDS011;68;48.792;9.164;2023-10-19T10:39:26;31.77;;;12.35;;
151;SDS011;68;48.792;9.164;2023-10-19T10:41:56;33.25;;;12.35;;
151;SDS011;68;48.792;9.164;2023-10-19T10:44:35;32.22;;;13.65;;
151;SDS011;68;48.792;9.164;2023-10-19T10:47:03;32.55;;;13.10;;
151;SDS011;68;48.792;9.164;2023-10-19T10:49:31;31.00;;;13.40;;
151;SDS011;68;48.792;9.164;2023-10-19T10:51:59;35.05;;;13.55;;
151;SDS011;68;48.792;9.164;2023-10-19T10:54:27;31.45;;;12.35;;
151;SDS011;68;48.792;9.164;2023-10-19T10:56:54;33.90;;;12.97;;
151;SDS011;68;48.792;9.164;2023-10-19T10:59:20;31.23;;;14.13;;
151;SDS011;68;48.792;9.164;2023-10-19T11:01:47;36.80;;;15.20;;
151;SDS011;68;48.792;9.164;2023-10-19T11:04:14;33.77;;;13.80;;
151;SDS011;68;48.792;9.164;2023-10-19T11:06:48;37.40;;;14.70;;
151;SDS011;68;48.792;9.164;2023-10-19T11:09:15;36.73;;;14.07;;
151;SDS011;68;48.792;9.164;2023-10-19T11:11:45;33.87;;;13.97;;
151;SDS011;68;48.792;9.164;2023-10-19T11:14:12;36.55;;;11.07;;
151;SDS011;68;48.792;9.164;2023-10-19T11:16:39;30.55;;;13.00;;
151;SDS011;68;48.792;9.164;2023-10-19T11:19:08;30.63;;;13.45;;
151;SDS011;68;48.792;9.164;2023-10-19T11:21:35;32.15;;;12.73;;
151;SDS011;68;48.792;9.164;2023-10-19T11:24:02;34.50;;;13.80;;
151;SDS011;68;48.792;9.164;2023-10-19T11:26:29;39.70;;;15.33;;
151;SDS011;68;48.792;9.164;2023-10-19T11:28:58;36.40;;;14.73;;
151;SDS011;68;48.792;9.164;2023-10-19T11:31:25;33.70;;;11.80;;
151;SDS011;68;48.792;9.164;2023-10-19T11:33:53;29.52;;;10.95;;
151;SDS011;68;48.792;9.164;2023-10-19T11:36:21;31.33;;;10.63;;
151;SDS011;68;48.792;9.164;2023-10-19T11:38:49;30.88;;;9.55;;
151;SDS011;68;48.792;9.164;2023-10-19T11:41:17;28.10;;;9.25;;
151;SDS011;68;48.792;9.164;2023-10-19T11:43:45;32.08;;;8.73;;
151;SDS011;68;48.792;9.164;2023-10-19T11:46:14;24.80;;;8.50;;
151;SDS011;68;48.792;9.164;2023-10-19T11:48:43;26.65;;;8.35;;
151;SDS011;68;48.792;9.164;2023-10-19T11:51:10;27.05;;;8.43;;
151;SDS011;68;48.792;9.164;2023-10-19T11:53:38;23.45;;;7.43;;
151;SDS011;68;48.792;9.164;2023-10-19T11:56:06;26.53;;;7.50;;
151;SDS011;68;48.792;9.164;2023-10-19T11:58:34;26.95;;;7.75;;
151;SDS011;68;48.792;9.164;2023-10-19T12:01:03;26.17;;;8.80;;
151;SDS011;68;48.792;9.164;2023-10-19T12:03:34;24.60;;;8.40;;
151;SDS011;68;48.792;9.164;2023-10-19T12:06:02;24.40;;;8.00;;
151;SDS011;68;48.792;9.164;2023-10-19T12:08:31;24.60;;;7.95;;
151;SDS011;68;48.792;9.164;2023-10-19T12:10:59;25.73;;;9.63;;
151;SDS011;68;48.792;9.164;2023-10-19T12:13:28;27.90;;;10.65;;
151;SDS011;68;48.792;9.164;2023-10-19T12:15:55;29.75;;;11.77;;
151;SDS011;68;48.792;9.164;2023-10-19T12:18:23;42.33;;;12.27;;
151;SDS011;68;48.792;9.164;2023-10-19T12:20:52;33.60;;;10.63;;
151;SDS011;68;48.792;9.164;2023-10-19T12:23:21;31.73;;;11.80;;
151;SDS011;68;48.792;9.164;2023-10-19T12:25:48;28.70;;;10.38;;
151;SDS011;68;48.792;9.164;2023-10-19T12:28:15;32.30;;;12.18;;
151;SDS011;68;48.792;9.164;2023-10-19T12:30:42;30.27;;;11.47;;
151;SDS011;68;48.792;9.164;2023-10-19T12:33:09;31.85;;;12.57;;
151;SDS011;68;48.792;9.164;2023-10-19T12:35:39;32.80;;;13.07;;
151;SDS011;68;48.792;9.164;2023-10-19T12:38:18;39.05;;;15.00;;
151;SDS011;68;48.792;9.164;2023-10-19T12:40:45;35.70;;;15.60;;
151;SDS011;68;48.792;9.164;2023-10-19T12:43:13;38.13;;;16.25;;
151;SDS011;68;48.792;9.164;2023-10-19T12:45:40;36.58;;;15.82;;
151;SDS011;68;48.792;9.164;2023-10-19T12:48:09;39.80;;;16.63;;
151;SDS011;68;48.792;9.164;2023-10-19T12:50:36;37.50;;;14.82;;
151;SDS011;68;48.792;9.164;2023-10-19T12:53:03;35.13;;;14.98;;
151;SDS011;68;48.792;9.164;2023-10-19T12:55:32;34.42;;;15.00;;
151;SDS011;68;48.792;9.164;2023-10-19T12:57:59;34.70;;;15.38;;
151;SDS011;68;48.792;9.164;2023-10-19T13:00:32;34.15;;;15.50;;
151;SDS011;68;48.792;9.164;2023-10-19T13:03:06;35.53;;;15.32;;
151;SDS011;68;48.792;9.164;2023-10-19T13:05:33;35.30;;;14.50;;
151;SDS011;68;48.792;9.164;2023-10-19T13:08:02;40.25;;;15.45;;
151;SDS011;68;48.792;9.164;2023-10-19T13:10:33;36.10;;;16.58;;
151;SDS011;68;48.792;9.164;2023-10-19T13:13:02;36.60;;;15.23;;
151;SDS011;68;48.792;9.164;2023-10-19T13:15:31;39.50;;;15.90;;
151;SDS011;68;48.792;9.164;2023-10-19T13:17:59;35.47;;;14.65;;
151;SDS011;68;48.792;9.164;2023-10-19T13:20:26;34.88;;;15.45;;
151;SDS011;68;48.792;9.164;2023-10-19T13:22:58;34.65;;;14.48;;
151;SDS011;68;48.792;9.164;2023-10-19T13:25:25;35.38;;;13.75;;
151;SDS011;68;48.792;9.164;2023-10-19T13:28:06;37.17;;;15.80;;
151;SDS011;68;48.792;9.164;2023-10-19T13:30:38;38.03;;;13.80;;
151;SDS011;68;48.792;9.164;2023-10-19T13:33:05;37.45;;;13.35;;
151;SDS011;68;48.792;9.164;2023-10-19T13:35:34;35.47;;;13.35;;
151;SDS011;68;48.792;9.164;2023-10-19T13:38:02;35.20;;;12.70;;
151;SDS011;68;48.792;9.164;2023-10-19T13:40:29;31.65;;;12.73;;
151;SDS011;68;48.792;9.164;2023-10-19T13:42:56;33.80;;;14.70;;
151;SDS011;68;48.792;9.164;2023-10-19T13:45:24;35.20;;;14.87;;
151;SDS011;68;48.792;9.164;2023-10-19T13:47:52;36.13;;;15.23;;
151;SDS011;68;48.792;9.164;2023-10-19T13:50:21;38.40;;;15.60;;
151;SDS011;68;48.792;9.164;2023-10-19T13:52:48;39.10;;;16.52;;
151;SDS011;68;48.792;9.164;2023-10-19T13:55:15;39.10;;;15.70;;
151;SDS011;68;48.792;9.164;2023-10-19T13:57:43;39.83;;;17.33;;
151;SDS011;68;48.792;9.164;2023-10-19T14:00:11;38.72;;;17.02;;
151;SDS011;68;48.792;9.164;2023-10-19T14:02:45;37.17;;;16.40;;
151;SDS011;68;48.792;9.164;2023-10-19T14:05:12;33.75;;;15.13;;
151;SDS011;68;48.792;9.164;2023-10-19T14:07:40;38.33;;;16.70;;
151;SDS011;68;48.792;9.164;2023-10-19T14:10:09;37.03;;;17.77;;
151;SDS011;68;48.792;9.164;2023-10-19T14:12:37;34.40;;;16.02;;
151;SDS011;68;48.792;9.164;2023-10-19T14:15:07;41.55;;;18.17;;
151;SDS011;68;48.792;9.164;2023-10-19T14:17:36;37.78;;;16.50;;
151;SDS011;68;48.792;9.164;2023-10-19T14:20:05;40.95;;;18.52;;
151;SDS011;68;48.792;9.164;2023-10-19T14:22:37;45.05;;;19.70;;
151;SDS011;68;48.792;9.164;2023-10-19T14:25:05;37.70;;;18.20;;
151;SDS011;68;48.792;9.164;2023-10-19T14:27:37;40.85;;;18.27;;
151;SDS011;68;48.792;9.164;2023-10-19T14:30:05;42.33;;;18.60;;
151;SDS011;68;48.792;9.164;2023-10-19T14:32:33;40.10;;;19.73;;
151;SDS011;68;48.792;9.164;2023-10-19T14:34:59;39.30;;;17.80;;
151;SDS011;68;48.792;9.164;2023-10-19T14:37:28;41.50;;;18.27;;
151;SDS011;68;48.792;9.164;2023-10-19T14:39:54;36.40;;;17.90;;
151;SDS011;68;48.792;9.164;2023-10-19T14:42:21;44.13;;;18.20;;
151;SDS011;68;48.792;9.164;2023-10-19T14:44:48;37.22;;;17.25;;
151;SDS011;68;48.792;9.164;2023-10-19T14:47:15;35.67;;;17.02;;
151;SDS011;68;48.792;9.164;2023-10-19T14:49:41;35.65;;;17.23;;
151;SDS011;68;48.792;9.164;2023-10-19T14:52:08;36.75;;;16.38;;
151;SDS011;68;48.792;9.164;2023-10-19T14:54:36;38.15;;;18.33;;
151;SDS011;68;48.792;9.164;2023-10-19T14:57:03;43.15;;;18.77;;
151;SDS011;68;48.792;9.164;2023-10-19T14:59:30;43.40;;;19.75;;
151;SDS011;68;48.792;9.164;2023-10-19T15:01:58;43.10;;;19.08;;
151;SDS011;68;48.792;9.164;2023-10-19T15:04:25;40.65;;;20.60;;
151;SDS011;68;48.792;9.164;2023-10-19T15:06:52;45.85;;;21.15;;
151;SDS011;68;48.792;9.164;2023-10-19T15:09:19;45.33;;;20.55;;
151;SDS011;68;48.792;9.164;2023-10-19T15:11:51;39.92;;;18.52;;
151;SDS011;68;48.792;9.164;2023-10-19T15:14:19;40.38;;;18.67;;
151;SDS011;68;48.792;9.164;2023-10-19T15:16:45;40.87;;;20.20;;
151;SDS011;68;48.792;9.164;2023-10-19T15:19:12;40.60;;;20.15;;
151;SDS011;68;48.792;9.164;2023-10-19T15:21:43;42.10;;;18.60;;
151;SDS011;68;48.792;9.164;2023-10-19T15:24:10;40.47;;;19.38;;
151;SDS011;68;48.792;9.164;2023-10-19T15:26:37;41.53;;;18.80;;
151;SDS011;68;48.792;9.164;2023-10-19T15:29:05;39.58;;;18.33;;
151;SDS011;68;48.792;9.164;2023-10-19T15:31:32;43.22;;;19.60;;
151;SDS011;68;48.792;9.164;2023-10-19T15:33:59;37.85;;;17.48;;
151;SDS011;68;48.792;9.164;2023-10-19T15:36:25;42.40;;;16.88;;
151;SDS011;68;48.792;9.164;2023-10-19T15:38:52;37.17;;;14.68;;
151;SDS011;68;48.792;9.164;2023-10-19T15:41:19;35.85;;;16.77;;
151;SDS011;68;48.792;9.164;2023-10-19T15:43:46;35.35;;;15.93;;